Sparta, WI (54656)

7:47 AM CDT on July 26, 2016 (GMT -0500)
Sparta-Fort McCoy | | Change Station

Elev 837 ft 43.96 °N, 90.74 °W | Updated 12 minutes ago

Clear
Clear
62 °F
Feels Like 62 °F
N
0
Wind Variable Wind from North

Today
High -- | Low -- °F
--% Chance of Precip.
Yesterday
High -- | Low -- °F
Precip. -- in
Pressure 30.09 in
Visibility 10.0 miles
Clouds Clear
Dew Point 61 °F
Humidity 95%
Rainfall 0.00 in
Snow Depth Not available.
5:45 AM 8:33 PM
Waning Gibbous, 55% visible
METAR KCMY 261235Z AUTO 00000KT 10SM CLR 17/16 A3009 RMK AO2 T01690161
Pressure 30.09 in
Visibility 10.0 miles
Clouds Clear
Dew Point 61 °F
Humidity 95%
Rainfall 0.00 in
Snow Depth Not available.
5:45 AM 8:33 PM
Waning Gibbous, 55% visible
METAR KCMY 261235Z AUTO 00000KT 10SM CLR 17/16 A3009 RMK AO2 T01690161

10-Day Weather Forecast

Almanac

Astronomy

Jul. 26, 2016 Rise Set
Actual Time
Civil Twilight
Nautical Twilight
Astronomical Twilight
Moon
Length of Visible Light
Length of Day
Tomorrow will be .
, % of the Moon is Illuminated

Today's Extremes

State Highs State Lows

Community

WunderPhotos

Upload Photos

1,927,581 photos uploaded!

WunderBlog® & News

Nearby

Air Quality

  Air Quality AQ Index Pollutant
Not available.

Snow Depth

Station Depth Elevation

Earthquake Activity

City Distance Mag. Time & Date
Minimum magnitude displayed is 2.5.

Coastal Water Temperatures

Place Temperature

Stations

Nearby Weather Stations

Station Location Temp. Windchill Dew Point Humidity Wind Precip. Elev Updated Type
                   

Watches & Warnings

There are currently no watches in effect.